createdAt,value
2019-01-19T00:02:21.031Z,344.50
2019-01-19T00:04:51.229Z,298.10
2019-01-19T00:07:21.278Z,287.50
2019-01-19T00:09:51.507Z,295.20
2019-01-19T00:12:21.186Z,283.67
2019-01-19T00:14:51.306Z,312.73
2019-01-19T00:17:21.277Z,308.27
2019-01-19T00:19:51.713Z,303.90
2019-01-19T00:22:21.649Z,300.67
2019-01-19T00:24:51.519Z,286.33
2019-01-19T00:27:21.517Z,288.57
2019-01-19T00:29:51.702Z,296.67
2019-01-19T00:32:21.104Z,295.73
2019-01-19T00:34:50.694Z,289.73
2019-01-19T00:37:20.231Z,286.93
2019-01-19T00:39:49.639Z,284.03
2019-01-19T00:42:19.235Z,305.23
2019-01-19T00:44:49.802Z,313.60
2019-01-19T00:47:20.518Z,310.47
2019-01-19T00:49:50.587Z,349.63
2019-01-19T00:52:20.307Z,323.10
2019-01-19T00:54:50.263Z,339.27
2019-01-19T00:57:20.248Z,341.00
2019-01-19T00:59:50.124Z,317.07
2019-01-19T01:02:20.325Z,309.30
2019-01-19T01:04:50.769Z,318.53
2019-01-19T01:07:21.109Z,369.83
2019-01-19T01:09:51.149Z,444.23
2019-01-19T01:12:21.286Z,358.83
2019-01-19T01:14:51.342Z,312.93
2019-01-19T01:17:21.726Z,310.67
2019-01-19T01:19:51.994Z,293.57
2019-01-19T01:22:21.764Z,295.83
2019-01-19T01:24:51.388Z,278.67
2019-01-19T01:27:21.693Z,291.93
2019-01-19T01:29:51.804Z,279.60
2019-01-19T01:32:21.712Z,300.67
2019-01-19T01:34:51.650Z,329.40
2019-01-19T01:37:21.755Z,316.30
2019-01-19T01:39:51.885Z,344.73
2019-01-19T01:42:21.729Z,339.03
2019-01-19T01:44:51.412Z,305.90
2019-01-19T01:47:21.688Z,328.83
2019-01-19T01:49:51.931Z,329.73
2019-01-19T01:52:21.936Z,323.47
2019-01-19T01:54:52.283Z,327.57
2019-01-19T01:57:22.384Z,352.33
2019-01-19T01:59:52.731Z,335.53
2019-01-19T02:02:22.751Z,335.60
2019-01-19T02:04:52.825Z,306.60
2019-01-19T02:07:22.983Z,307.57
2019-01-19T02:09:53.116Z,314.90
2019-01-19T02:12:23.102Z,316.30
2019-01-19T02:14:53.109Z,325.40
2019-01-19T02:17:23.044Z,340.87
2019-01-19T02:19:53.106Z,325.53
2019-01-19T02:22:23.676Z,304.90
2019-01-19T02:24:53.629Z,310.00
2019-01-19T02:27:23.704Z,321.27
2019-01-19T02:29:54.034Z,316.20
2019-01-19T02:32:24.688Z,315.23
2019-01-19T02:34:55.070Z,306.07
2019-01-19T02:37:24.979Z,294.37
2019-01-19T02:39:55.701Z,279.63
2019-01-19T02:42:26.251Z,284.87
2019-01-19T02:44:56.678Z,293.80
2019-01-19T02:47:26.831Z,287.13
2019-01-19T02:49:57.030Z,280.73
2019-01-19T02:52:27.415Z,292.17
2019-01-19T02:54:57.768Z,297.60
2019-01-19T02:57:27.993Z,290.57
2019-01-19T02:59:58.586Z,286.90
2019-01-19T03:02:28.562Z,290.83
2019-01-19T03:04:58.692Z,276.10
2019-01-19T03:07:28.831Z,285.40
2019-01-19T03:09:59.553Z,284.13
2019-01-19T03:12:30.040Z,289.10
2019-01-19T03:15:00.274Z,282.13
2019-01-19T03:17:30.267Z,316.43
2019-01-19T03:20:00.432Z,284.90
2019-01-19T03:22:30.561Z,281.47
2019-01-19T03:25:00.543Z,275.33
2019-01-19T03:27:30.677Z,281.13
2019-01-19T03:30:01.604Z,277.20
2019-01-19T03:32:31.432Z,274.83
2019-01-19T03:35:02.280Z,264.80
2019-01-19T03:37:32.903Z,266.63
2019-01-19T03:40:02.667Z,263.10
2019-01-19T03:42:32.755Z,249.57
2019-01-19T03:45:03.138Z,247.50
2019-01-19T03:47:33.843Z,257.40
2019-01-19T03:50:03.775Z,255.47
2019-01-19T03:52:33.416Z,255.47
2019-01-19T03:55:03.562Z,259.07
2019-01-19T03:57:33.423Z,266.77
2019-01-19T04:00:03.658Z,277.63
2019-01-19T04:02:33.731Z,270.00
2019-01-19T04:05:03.726Z,258.30
2019-01-19T04:07:33.792Z,274.90
2019-01-19T04:10:03.509Z,260.13
2019-01-19T04:12:33.666Z,262.20
2019-01-19T04:15:03.220Z,251.87
2019-01-19T04:17:33.563Z,260.80
2019-01-19T04:20:03.474Z,271.70
2019-01-19T04:22:33.095Z,270.87
2019-01-19T04:25:03.698Z,265.40
2019-01-19T04:27:34.150Z,261.03
2019-01-19T04:30:04.249Z,254.20
2019-01-19T04:32:34.435Z,255.03
2019-01-19T04:35:04.746Z,274.43
2019-01-19T04:37:34.740Z,259.83
2019-01-19T04:40:04.317Z,266.50
2019-01-19T04:42:34.262Z,248.13
2019-01-19T04:45:04.339Z,254.23
2019-01-19T04:47:34.490Z,234.97
2019-01-19T04:50:04.619Z,236.77
2019-01-19T04:52:34.639Z,240.27
2019-01-19T04:55:04.766Z,227.17
2019-01-19T04:57:34.749Z,237.27
2019-01-19T05:04:05.001Z,241.60
2019-01-19T05:06:35.543Z,230.00
2019-01-19T05:09:05.639Z,256.73
2019-01-19T05:11:35.603Z,258.63
2019-01-19T05:14:06.216Z,299.67
2019-01-19T05:16:36.199Z,287.40
2019-01-19T05:19:06.212Z,278.53
2019-01-19T05:21:36.241Z,275.50
2019-01-19T05:24:06.172Z,235.10
2019-01-19T05:26:36.114Z,230.80
2019-01-19T05:29:06.583Z,232.67
2019-01-19T05:31:36.343Z,250.57
2019-01-19T05:34:06.558Z,243.53
2019-01-19T05:36:38.550Z,241.73
2019-01-19T05:39:07.227Z,243.73
2019-01-19T05:41:37.443Z,222.40
2019-01-19T05:44:07.724Z,216.77
2019-01-19T05:46:38.429Z,219.30
2019-01-19T05:49:08.564Z,209.60
2019-01-19T05:51:38.565Z,218.47
2019-01-19T05:54:08.670Z,199.27
2019-01-19T05:56:38.434Z,200.63
2019-01-19T05:59:08.841Z,188.23
2019-01-19T06:01:39.280Z,191.43
2019-01-19T06:04:09.298Z,184.53
2019-01-19T06:06:46.562Z,176.80
2019-01-19T06:09:10.824Z,189.27
2019-01-19T06:11:41.194Z,197.57
2019-01-19T06:16:54.629Z,186.70
2019-01-19T06:19:24.873Z,186.77
2019-01-19T06:21:55.238Z,197.63
2019-01-19T06:24:25.086Z,194.17
2019-01-19T06:26:55.400Z,195.33
2019-01-19T06:29:25.425Z,177.40
2019-01-19T06:31:55.862Z,182.13
2019-01-19T06:34:25.669Z,189.47
2019-01-19T06:36:55.871Z,192.10
2019-01-19T06:39:26.403Z,183.33
2019-01-19T06:41:56.805Z,199.37
2019-01-19T06:44:27.078Z,177.20
2019-01-19T06:46:57.619Z,185.67
2019-01-19T06:49:28.134Z,194.70
2019-01-19T06:51:58.403Z,208.03
2019-01-19T06:54:28.825Z,203.70
2019-01-19T06:56:58.786Z,195.43
2019-01-19T06:59:29.116Z,192.67
2019-01-19T07:01:59.352Z,186.70
2019-01-19T07:04:29.440Z,180.07
2019-01-19T07:07:02.810Z,171.40
2019-01-19T07:09:30.275Z,176.13
2019-01-19T07:12:00.623Z,181.53
2019-01-19T07:14:30.755Z,182.43
2019-01-19T07:17:00.875Z,185.20
2019-01-19T07:19:30.985Z,176.30
2019-01-19T07:22:01.135Z,177.40
2019-01-19T07:24:31.434Z,180.27
2019-01-19T07:27:01.465Z,180.27
2019-01-19T07:29:31.545Z,180.40
2019-01-19T07:32:01.671Z,172.93
2019-01-19T07:34:31.803Z,170.20
2019-01-19T07:37:02.145Z,166.23
2019-01-19T07:39:32.185Z,168.73
2019-01-19T07:42:02.273Z,155.63
2019-01-19T07:44:32.649Z,165.73
2019-01-19T07:47:02.811Z,150.03
2019-01-19T07:49:32.970Z,158.50
2019-01-19T07:52:03.204Z,152.77
2019-01-19T07:54:33.364Z,154.50
2019-01-19T07:57:02.991Z,158.53
2019-01-19T07:59:32.802Z,158.77
2019-01-19T08:02:02.912Z,166.40
2019-01-19T08:04:33.284Z,161.57
2019-01-19T08:07:03.458Z,170.20
2019-01-19T08:09:33.593Z,172.03
2019-01-19T08:12:03.845Z,154.50
2019-01-19T08:14:33.668Z,166.90
2019-01-19T08:17:03.992Z,155.17
2019-01-19T08:19:34.452Z,159.17
2019-01-19T08:22:04.579Z,158.87
2019-01-19T08:24:34.266Z,152.33
2019-01-19T08:27:04.654Z,168.87
2019-01-19T08:29:34.535Z,159.60
2019-01-19T08:32:04.842Z,148.63
2019-01-19T08:34:35.081Z,154.03
2019-01-19T08:37:05.702Z,194.20
2019-01-19T08:39:35.490Z,145.13
2019-01-19T08:42:05.735Z,141.60
2019-01-19T08:44:35.861Z,141.20
2019-01-19T08:47:05.877Z,133.10
2019-01-19T08:49:36.332Z,144.03
2019-01-19T08:52:08.951Z,143.50
2019-01-19T08:54:39.690Z,149.30
2019-01-19T08:57:10.140Z,148.13
2019-01-19T08:59:40.196Z,142.17
2019-01-19T09:02:10.260Z,145.13
2019-01-19T09:04:40.409Z,135.73
2019-01-19T09:07:10.417Z,129.90
2019-01-19T09:09:40.626Z,139.27
2019-01-19T09:12:11.124Z,137.53
2019-01-19T09:14:41.955Z,129.63
2019-01-19T09:17:12.326Z,126.17
2019-01-19T09:19:42.242Z,136.63
2019-01-19T09:22:12.835Z,115.23
2019-01-19T09:24:42.913Z,123.93
2019-01-19T09:27:13.113Z,121.57
2019-01-19T09:29:43.405Z,129.43
2019-01-19T09:32:13.844Z,128.43
2019-01-19T09:34:43.874Z,122.97
2019-01-19T09:37:13.930Z,121.97
2019-01-19T09:39:44.109Z,126.73
2019-01-19T09:42:14.442Z,140.17
2019-01-19T09:44:44.853Z,126.63
2019-01-19T09:47:14.917Z,128.03
2019-01-19T09:49:45.013Z,122.20
2019-01-19T09:52:20.986Z,117.87
2019-01-19T09:54:46.396Z,120.90
2019-01-19T09:57:16.800Z,117.73
2019-01-19T09:59:47.019Z,120.70
2019-01-19T10:02:17.606Z,125.20
2019-01-19T10:04:48.003Z,116.70
2019-01-19T10:07:18.421Z,119.63
2019-01-19T10:09:48.304Z,111.00
2019-01-19T10:12:18.436Z,111.53
2019-01-19T10:14:48.429Z,106.50
2019-01-19T10:17:18.701Z,99.57
2019-01-19T10:19:48.371Z,104.50
2019-01-19T10:22:18.329Z,104.13
2019-01-19T10:24:48.363Z,105.20
2019-01-19T10:27:18.323Z,111.90
2019-01-19T10:29:48.003Z,100.90
2019-01-19T10:32:18.044Z,100.17
2019-01-19T10:34:48.473Z,100.67
2019-01-19T10:37:19.014Z,91.27
2019-01-19T10:39:49.134Z,99.43
2019-01-19T10:42:18.937Z,88.33
2019-01-19T10:44:49.051Z,96.87
2019-01-19T10:47:19.229Z,105.77
2019-01-19T10:49:49.456Z,102.40
2019-01-19T10:52:19.607Z,101.13
2019-01-19T10:54:49.617Z,105.77
2019-01-19T10:57:20.003Z,101.70
2019-01-19T10:59:50.106Z,106.23
2019-01-19T11:02:20.196Z,114.87
2019-01-19T11:04:50.563Z,112.13
2019-01-19T11:07:20.396Z,104.03
2019-01-19T11:09:50.243Z,107.67
2019-01-19T11:12:20.492Z,113.03
2019-01-19T11:14:50.603Z,123.83
2019-01-19T11:17:20.771Z,118.87
2019-01-19T11:19:50.766Z,123.60
2019-01-19T11:22:20.977Z,121.30
2019-01-19T11:24:51.241Z,118.80
2019-01-19T11:27:21.152Z,127.20
2019-01-19T11:29:51.417Z,126.23
2019-01-19T11:32:21.551Z,123.93
2019-01-19T11:34:51.562Z,128.67
2019-01-19T11:37:21.959Z,124.23
2019-01-19T11:39:52.114Z,122.23
2019-01-19T11:42:22.028Z,108.30
2019-01-19T11:44:52.232Z,119.27
2019-01-19T11:47:22.289Z,116.77
2019-01-19T11:49:52.286Z,116.13
2019-01-19T11:52:22.138Z,139.37
2019-01-19T11:54:52.102Z,133.50
2019-01-19T11:57:22.309Z,138.43
2019-01-19T11:59:52.384Z,143.30
2019-01-19T12:02:22.357Z,153.67
2019-01-19T12:04:52.432Z,137.77
2019-01-19T12:07:22.303Z,131.70
2019-01-19T12:09:54.297Z,134.40
2019-01-19T12:12:24.363Z,168.20
2019-01-19T12:14:54.789Z,175.77
2019-01-19T12:17:24.910Z,220.00
2019-01-19T12:19:54.945Z,228.97
2019-01-19T12:22:25.051Z,270.00
2019-01-19T12:24:54.660Z,241.80
2019-01-19T12:27:24.848Z,251.00
2019-01-19T12:29:55.001Z,261.10
2019-01-19T12:32:25.010Z,207.67
2019-01-19T12:34:54.952Z,191.30
2019-01-19T12:37:25.173Z,187.20
2019-01-19T12:39:55.071Z,184.60
2019-01-19T12:42:25.409Z,167.53
2019-01-19T12:44:55.125Z,206.60
2019-01-19T12:47:25.171Z,184.77
2019-01-19T12:49:54.844Z,197.53
2019-01-19T12:52:25.013Z,191.77
2019-01-19T12:54:55.486Z,188.70
2019-01-19T12:57:25.613Z,196.67
2019-01-19T12:59:55.393Z,167.90
2019-01-19T13:02:25.320Z,172.53
2019-01-19T13:04:54.964Z,196.20
2019-01-19T13:07:25.114Z,189.17
2019-01-19T13:09:54.773Z,214.03
2019-01-19T13:12:24.581Z,264.40
2019-01-19T13:14:54.803Z,288.40
2019-01-19T13:17:25.169Z,268.47
2019-01-19T13:19:55.236Z,253.13
2019-01-19T13:22:25.326Z,335.70
2019-01-19T13:24:55.487Z,358.40
2019-01-19T13:27:25.595Z,354.63
2019-01-19T13:29:55.895Z,489.47
2019-01-19T13:32:25.888Z,498.60
2019-01-19T13:34:56.029Z,587.47
2019-01-19T13:37:26.188Z,422.70
2019-01-19T13:39:56.228Z,427.80
2019-01-19T13:42:26.328Z,402.37
2019-01-19T13:44:56.384Z,360.63
2019-01-19T13:47:26.485Z,344.07
2019-01-19T13:49:56.849Z,319.57
2019-01-19T13:52:27.265Z,331.57
2019-01-19T13:54:57.420Z,349.37
2019-01-19T13:57:28.071Z,341.97
2019-01-19T13:59:58.220Z,332.47
2019-01-19T14:02:28.103Z,325.43
2019-01-19T14:04:58.609Z,350.00
2019-01-19T14:07:28.627Z,349.53
2019-01-19T14:09:58.713Z,368.40
2019-01-19T14:12:28.544Z,351.70
2019-01-19T14:14:58.981Z,338.13
2019-01-19T14:17:28.890Z,294.47
2019-01-19T14:19:59.426Z,264.47
2019-01-19T14:22:29.681Z,262.20
2019-01-19T14:24:59.580Z,259.60
2019-01-19T14:27:29.685Z,234.47
2019-01-19T14:30:00.820Z,232.30
2019-01-19T14:32:30.950Z,224.33
2019-01-19T14:35:00.754Z,210.43
2019-01-19T14:37:31.061Z,224.43
2019-01-19T14:40:00.951Z,212.20
2019-01-19T14:42:30.737Z,226.57
2019-01-19T14:45:00.874Z,221.00
2019-01-19T14:47:30.954Z,221.50
2019-01-19T14:50:00.949Z,244.30
2019-01-19T14:52:30.867Z,221.63
2019-01-19T14:55:01.162Z,217.80
2019-01-19T14:57:30.909Z,226.37
2019-01-19T15:00:01.106Z,215.30
2019-01-19T15:02:31.450Z,222.60
2019-01-19T15:05:01.587Z,217.33
2019-01-19T15:07:31.558Z,211.67
2019-01-19T15:10:01.527Z,221.97
2019-01-19T15:12:31.450Z,226.37
2019-01-19T15:15:01.593Z,225.47
2019-01-19T15:17:31.882Z,219.43
2019-01-19T15:20:01.610Z,232.10
2019-01-19T15:22:31.475Z,244.10
2019-01-19T15:25:01.497Z,216.03
2019-01-19T15:27:31.627Z,242.63
2019-01-19T15:30:01.432Z,376.40
2019-01-19T15:32:31.863Z,344.40
2019-01-19T15:35:01.489Z,334.37
2019-01-19T15:37:31.275Z,482.40
2019-01-19T15:40:01.692Z,314.23
2019-01-19T15:42:31.730Z,292.30
2019-01-19T15:45:01.849Z,275.20
2019-01-19T15:47:32.270Z,265.80
2019-01-19T15:50:02.033Z,258.23
2019-01-19T15:52:32.048Z,259.83
2019-01-19T15:55:01.969Z,284.13
2019-01-19T15:57:32.215Z,275.13
2019-01-19T16:00:02.168Z,265.80
2019-01-19T16:02:32.168Z,259.63
2019-01-19T16:05:02.261Z,310.53
2019-01-19T16:07:32.501Z,289.43
2019-01-19T16:10:02.540Z,307.57
2019-01-19T16:12:33.053Z,349.77
2019-01-19T16:15:02.602Z,337.20
2019-01-19T16:17:32.884Z,326.80
2019-01-19T16:20:03.238Z,308.00
2019-01-19T16:22:32.797Z,313.53
2019-01-19T16:25:03.172Z,303.83
2019-01-19T16:27:33.748Z,317.90
2019-01-19T16:30:03.615Z,275.17
2019-01-19T16:32:33.344Z,270.47
2019-01-19T16:35:03.487Z,269.13
2019-01-19T16:37:33.741Z,267.07
2019-01-19T16:40:03.319Z,268.53
2019-01-19T16:42:32.999Z,248.37
2019-01-19T16:45:03.107Z,255.97
2019-01-19T16:47:33.183Z,244.17
2019-01-19T16:50:03.223Z,229.70
2019-01-19T16:52:33.093Z,250.13
2019-01-19T16:55:02.900Z,259.37
2019-01-19T16:57:32.960Z,264.33
2019-01-19T17:00:03.074Z,277.73
2019-01-19T17:02:33.210Z,301.13
2019-01-19T17:05:03.477Z,276.77
2019-01-19T17:07:33.510Z,286.87
2019-01-19T17:10:03.155Z,292.57
2019-01-19T17:12:33.332Z,264.67
2019-01-19T17:15:03.428Z,273.93
2019-01-19T17:17:33.157Z,261.83
2019-01-19T17:20:03.164Z,279.53
2019-01-19T17:22:33.315Z,279.70
2019-01-19T17:25:03.555Z,281.57
2019-01-19T17:27:33.494Z,269.30
2019-01-19T17:30:03.393Z,256.63
2019-01-19T17:32:33.375Z,276.17
2019-01-19T17:35:03.411Z,301.57
2019-01-19T17:37:33.507Z,296.47
2019-01-19T17:40:03.520Z,298.50
2019-01-19T17:42:33.517Z,300.23
2019-01-19T17:45:03.974Z,307.30
2019-01-19T17:47:34.041Z,300.57
2019-01-19T17:50:04.103Z,314.93
2019-01-19T17:52:34.330Z,289.40
2019-01-19T17:55:04.354Z,304.53
2019-01-19T17:57:34.473Z,310.73
2019-01-19T18:00:04.096Z,310.73
2019-01-19T18:02:34.081Z,300.13
2019-01-19T18:05:04.719Z,283.57
2019-01-19T18:07:35.282Z,271.73
2019-01-19T18:10:04.951Z,271.30
2019-01-19T18:12:35.301Z,272.10
2019-01-19T18:15:05.318Z,271.80
2019-01-19T18:17:35.002Z,272.07
2019-01-19T18:20:05.481Z,257.23
2019-01-19T18:22:35.241Z,262.30
2019-01-19T18:25:05.368Z,282.97
2019-01-19T18:27:35.402Z,289.73
2019-01-19T18:30:04.946Z,292.70
2019-01-19T18:32:34.955Z,295.57
2019-01-19T18:35:04.912Z,301.97
2019-01-19T18:37:35.389Z,348.03
2019-01-19T18:40:05.254Z,336.20
2019-01-19T18:42:35.255Z,318.13
2019-01-19T18:45:05.322Z,312.53
2019-01-19T18:47:34.999Z,336.67
2019-01-19T18:50:05.010Z,330.23
2019-01-19T18:52:34.972Z,344.50
2019-01-19T18:55:04.750Z,322.00
2019-01-19T18:57:34.544Z,312.87
2019-01-19T19:00:04.557Z,311.53
2019-01-19T19:02:34.645Z,301.73
2019-01-19T19:05:04.516Z,324.10
2019-01-19T19:07:34.720Z,344.90
2019-01-19T19:10:04.359Z,326.20
2019-01-19T19:12:34.658Z,315.47
2019-01-19T19:15:04.475Z,327.60
2019-01-19T19:17:35.208Z,317.57
2019-01-19T19:20:05.115Z,306.73
2019-01-19T19:22:34.921Z,304.60
2019-01-19T19:25:04.740Z,298.77
2019-01-19T19:27:34.862Z,292.73
2019-01-19T19:30:05.324Z,290.40
2019-01-19T19:32:35.578Z,280.93
2019-01-19T19:35:06.313Z,278.57
2019-01-19T19:37:35.855Z,306.30
2019-01-19T19:40:09.750Z,301.90
2019-01-19T19:42:36.890Z,300.13
2019-01-19T19:45:06.920Z,309.67
2019-01-19T19:47:37.007Z,302.97
2019-01-19T19:50:06.789Z,304.43
2019-01-19T19:52:36.879Z,298.23
2019-01-19T19:55:07.248Z,282.87
2019-01-19T19:57:36.882Z,290.77
2019-01-19T20:00:06.720Z,286.57
2019-01-19T20:02:36.863Z,288.17
2019-01-19T20:05:06.617Z,294.47
2019-01-19T20:07:37.003Z,290.67
2019-01-19T20:10:07.133Z,281.77
2019-01-19T20:12:37.164Z,282.90
2019-01-19T20:15:06.922Z,281.93
2019-01-19T20:17:36.836Z,270.83
2019-01-19T20:20:06.833Z,284.00
2019-01-19T20:22:36.518Z,300.77
2019-01-19T20:25:06.614Z,285.27
2019-01-19T20:27:36.677Z,279.53
2019-01-19T20:30:06.454Z,274.93
2019-01-19T20:32:36.355Z,268.53
2019-01-19T20:35:06.344Z,268.47
2019-01-19T20:37:36.340Z,276.33
2019-01-19T20:40:06.358Z,280.17
2019-01-19T20:42:36.541Z,272.30
2019-01-19T20:45:06.390Z,279.73
2019-01-19T20:47:36.723Z,275.10
2019-01-19T20:50:06.538Z,280.13
2019-01-19T20:52:36.547Z,272.73
2019-01-19T20:55:06.793Z,310.03
2019-01-19T20:57:37.020Z,300.90
2019-01-19T21:00:06.822Z,293.60
2019-01-19T21:02:37.179Z,291.23
2019-01-19T21:05:07.343Z,290.13
2019-01-19T21:07:37.577Z,305.17
2019-01-19T21:10:07.593Z,328.53
2019-01-19T21:12:37.823Z,311.07
2019-01-19T21:15:07.951Z,315.43
2019-01-19T21:17:37.969Z,319.83
2019-01-19T21:20:07.534Z,313.90
2019-01-19T21:22:38.112Z,317.07
2019-01-19T21:25:08.312Z,309.10
2019-01-19T21:27:38.598Z,289.83
2019-01-19T21:30:09.024Z,272.10
2019-01-19T21:32:39.108Z,303.50
2019-01-19T21:35:09.080Z,333.17
2019-01-19T21:37:38.838Z,318.37
2019-01-19T21:40:09.006Z,313.73
2019-01-19T21:42:38.919Z,306.60
2019-01-19T21:45:08.954Z,307.60
2019-01-19T21:47:39.247Z,311.23
2019-01-19T21:50:09.663Z,298.27
2019-01-19T21:52:39.701Z,296.17
2019-01-19T21:55:09.638Z,301.83
2019-01-19T21:57:39.943Z,295.93
2019-01-19T22:00:10.088Z,303.17
2019-01-19T22:02:40.703Z,294.60
2019-01-19T22:05:10.820Z,290.93
2019-01-19T22:07:40.844Z,295.73
2019-01-19T22:10:10.850Z,290.47
2019-01-19T22:12:41.001Z,303.30
2019-01-19T22:15:11.093Z,304.13
2019-01-19T22:17:41.402Z,291.50
2019-01-19T22:20:11.647Z,300.70
2019-01-19T22:22:41.771Z,299.70
2019-01-19T22:25:11.645Z,312.70
2019-01-19T22:27:41.370Z,315.67
2019-01-19T22:30:11.314Z,319.00
2019-01-19T22:32:41.428Z,296.87
2019-01-19T22:35:11.831Z,305.27
2019-01-19T22:37:42.136Z,306.03
2019-01-19T22:40:11.976Z,298.50
2019-01-19T22:42:41.876Z,291.87
2019-01-19T22:45:12.009Z,293.73
2019-01-19T22:47:42.167Z,300.10
2019-01-19T22:50:12.326Z,287.93
2019-01-19T22:52:42.358Z,284.77
2019-01-19T22:55:12.473Z,292.83
2019-01-19T22:57:42.621Z,277.90
2019-01-19T23:00:12.918Z,276.93
2019-01-19T23:02:43.066Z,275.77
2019-01-19T23:05:13.648Z,297.90
2019-01-19T23:07:44.049Z,287.70
2019-01-19T23:10:13.926Z,288.27
2019-01-19T23:12:44.017Z,284.10
2019-01-19T23:15:13.919Z,287.50
2019-01-19T23:17:44.180Z,302.97
2019-01-19T23:20:14.230Z,282.33
2019-01-19T23:22:44.528Z,305.33
2019-01-19T23:25:14.212Z,305.20
2019-01-19T23:27:44.461Z,303.93
2019-01-19T23:30:14.252Z,298.27
2019-01-19T23:32:44.577Z,291.27
2019-01-19T23:35:14.508Z,292.07
2019-01-19T23:37:44.803Z,283.27
2019-01-19T23:40:14.772Z,273.57
2019-01-19T23:42:47.381Z,280.03
2019-01-19T23:45:15.563Z,268.63
2019-01-19T23:47:45.693Z,288.47
2019-01-19T23:50:15.565Z,302.57
2019-01-19T23:52:45.842Z,300.13
2019-01-19T23:55:16.004Z,307.00
2019-01-19T23:57:46.400Z,297.07
